• Join FlightAware (Why Join?)
  • Login
  • US Flag 
05:44PM EDT


 

Airport Tracker/Info


-or-


 

Live Flight TrackerFlight Track Log ✈ CDG4837 ✈ 14-Jul-2013 ✈ ZUCK / CKG - ZSQD / TAO

Flight Track Log - Related Links

Times and Time Zones

All times are in EDT time to prevent confusion due to time zone crossing. See the CDG4837 flight status page for this flight to view local times or setup timezone preferences in your user account.

Time Position Orientation Groundspeed Altitude Reporting Facility
EDT Latitude Longitude Course Direction KTS MPH feet Rate Location/Type
08:26PM 30.2652 107.6115 57° Northeast  Level Estimated
08:27PM 30.3193 107.7092 57° Northeast  Level Estimated
08:28PM 30.3734 107.8069 57° Northeast  Level Estimated
08:29PM 30.4275 107.9047 57° Northeast  Level Estimated
08:30PM 30.4814 108.0027 57° Northeast  Level Estimated
08:31PM 30.5353 108.1008 57° Northeast  Level Estimated
08:32PM 30.5892 108.1990 57° Northeast  Level Estimated
08:33PM 30.6429 108.2972 58° Northeast  Level Estimated
08:34PM 30.6966 108.3957 58° Northeast  Level Estimated
08:35PM 30.7502 108.4942 58° Northeast  Level Estimated
08:36PM 30.8037 108.5928 58° Northeast  Level Estimated
08:37PM 30.8571 108.6915 58° Northeast  Level Estimated
08:38PM 30.9105 108.7904 58° Northeast  Level Estimated
08:39PM 30.9638 108.8893 58° Northeast  Level Estimated
08:40PM 31.0170 108.9884 58° Northeast  Level Estimated
08:41PM 31.0702 109.0875 58° Northeast  Level Estimated
08:42PM 31.1232 109.1868 58° Northeast  Level Estimated
08:43PM 31.1762 109.2862 58° Northeast  Level Estimated
08:44PM 31.2292 109.3857 58° Northeast  Level Estimated
08:45PM 31.2820 109.4853 58° Northeast  Level Estimated
08:46PM 31.3348 109.5850 58° Northeast  Level Estimated
08:47PM 31.3874 109.6849 58° Northeast  Level Estimated
08:48PM 31.4401 109.7848 58° Northeast  Level Estimated
08:49PM 31.4926 109.8849 58° Northeast  Level Estimated
08:50PM 31.5450 109.9851 58° Northeast  Level Estimated
08:51PM 31.5974 110.0854 58° Northeast  Level Estimated
08:52PM 31.6497 110.1858 59° Northeast  Level Estimated
08:53PM 31.7019 110.2863 59° Northeast  Level Estimated
08:54PM 31.7541 110.3869 59° Northeast  Level Estimated
08:55PM 31.8061 110.4876 59° Northeast  Level Estimated
08:56PM 31.8581 110.5885 59° Northeast  Level Estimated
08:57PM 31.9100 110.6895 59° Northeast  Level Estimated
08:58PM 31.9618 110.7905 59° Northeast  Level Estimated
08:59PM 32.0136 110.8917 59° Northeast  Level Estimated
09:00PM 32.0652 110.9930 59° Northeast  Level Estimated
09:01PM 32.1168 111.0945 59° Northeast  Level Estimated
09:02PM 32.1683 111.1960 59° Northeast  Level Estimated
09:03PM 32.2197 111.2976 59° Northeast  Level Estimated
09:04PM 32.2711 111.3994 59° Northeast  Level Estimated
09:05PM 32.3223 111.5013 59° Northeast  Level Estimated
09:06PM 32.3735 111.6033 59° Northeast  Level Estimated
09:07PM 32.4246 111.7054 59° Northeast  Level Estimated
09:08PM 32.4756 111.8076 59° Northeast  Level Estimated
09:09PM 32.5265 111.9100 59° Northeast  Level Estimated
09:10PM 32.5774 112.0124 59° Northeast  Level Estimated
09:11PM 32.6281 112.1150 60° Northeast  Level Estimated
09:12PM 32.6788 112.2177 60° Northeast  Level Estimated
09:13PM 32.7294 112.3205 60° Northeast  Level Estimated
09:14PM 32.7799 112.4234 60° Northeast  Level Estimated
09:15PM 32.8303 112.5265 60° Northeast  Level Estimated
09:16PM 32.8807 112.6296 60° Northeast  Level Estimated
09:17PM 32.9309 112.7329 60° Northeast  Level Estimated
09:18PM 32.9811 112.8363 60° Northeast  Level Estimated
09:19PM 33.0312 112.9398 60° Northeast  Level Estimated
09:20PM 33.0812 113.0434 60° Northeast  Level Estimated
09:21PM 33.1311 113.1472 60° Northeast  Level Estimated
09:22PM 33.1809 113.2511 60° Northeast  Level Estimated
09:23PM 33.2307 113.3550 60° Northeast  Level Estimated
09:24PM 33.2803 113.4591 60° Northeast  Level Estimated
09:25PM 33.3299 113.5634 60° Northeast  Level Estimated
09:26PM 33.3793 113.6677 60° Northeast  Level Estimated
09:27PM 33.4287 113.7722 60° Northeast  Level Estimated
09:28PM 33.4780 113.8767 61° Northeast  Level Estimated
09:29PM 33.5273 113.9814 61° Northeast  Level Estimated
09:30PM 33.5764 114.0862 61° Northeast  Level Estimated
09:31PM 33.6254 114.1912 61° Northeast  Level Estimated
09:32PM 33.6744 114.2962 61° Northeast  Level Estimated
09:33PM 33.7232 114.4014 61° Northeast  Level Estimated
09:34PM 33.7720 114.5067 61° Northeast  Level Estimated
09:35PM 33.8207 114.6121 61° Northeast  Level Estimated
09:36PM 33.8693 114.7176 61° Northeast  Level Estimated
09:37PM 33.9178 114.8233 61° Northeast  Level Estimated
09:38PM 33.9662 114.9290 61° Northeast  Level Estimated
09:39PM 34.0145 115.0349 61° Northeast  Level Estimated
09:40PM 34.0627 115.1409 61° Northeast  Level Estimated
09:41PM 34.1109 115.2471 61° Northeast  Level Estimated
09:42PM 34.1589 115.3533 61° Northeast  Level Estimated
09:43PM 34.2069 115.4597 61° Northeast  Level Estimated
09:44PM 34.2548 115.5662 61° Northeast  Level Estimated
09:45PM 34.3025 115.6728 62° Northeast  Level Estimated
09:46PM 34.3502 115.7795 62° Northeast  Level Estimated
09:47PM 34.3978 115.8864 62° Northeast  Level Estimated
09:48PM 34.4453 115.9934 62° Northeast  Level Estimated
09:49PM 34.4927 116.1005 62° Northeast  Level Estimated
09:50PM 34.5400 116.2077 62° Northeast  Level Estimated
09:51PM 34.5872 116.3151 62° Northeast  Level Estimated
09:52PM 34.6343 116.4225 62° Northeast  Level Estimated
09:53PM 34.6814 116.5301 62° Northeast  Level Estimated
09:54PM 34.7283 116.6378 62° Northeast  Level Estimated
09:55PM 34.7751 116.7457 62° Northeast  Level Estimated
09:56PM 34.8219 116.8536 62° Northeast  Level Estimated
09:57PM 34.8685 116.9617 62° Northeast  Level Estimated
09:58PM 34.9151 117.0699 62° Northeast  Level Estimated
09:59PM 34.9615 117.1782 62° Northeast  Level Estimated
10:00PM 35.0079 117.2867 62° Northeast  Level Estimated
10:01PM 35.0541 117.3952 62° Northeast  Level Estimated
10:02PM 35.1003 117.5039 63° Northeast  Level Estimated
10:03PM 35.1464 117.6127 63° Northeast  Level Estimated
10:04PM 35.1923 117.7217 63° Northeast  Level Estimated
10:05PM 35.2382 117.8307 63° Northeast  Level Estimated
10:06PM 35.2840 117.9399 63° Northeast  Level Estimated
10:07PM 35.3297 118.0492 63° Northeast  Level Estimated
10:08PM 35.3753 118.1587 63° Northeast  Level Estimated
10:09PM 35.4207 118.2682 63° Northeast  Level Estimated
10:10PM 35.4661 118.3779 63° Northeast  Level Estimated
10:11PM 35.5114 118.4877 63° Northeast  Level Estimated
10:12PM 35.5566 118.5976 63° Northeast  Level Estimated
10:13PM 35.6017 118.7077 63° Northeast  Level Estimated
10:14PM 35.6466 118.8179 63° Northeast  Level Estimated
10:15PM 35.6915 118.9282 63° Northeast  Level Estimated
10:16PM 35.7363 119.0386 63° Northeast  Level Estimated
10:17PM 35.7810 119.1491 63° Northeast  Level Estimated
10:18PM 35.8256 119.2598 64° Northeast  Level Estimated
10:19PM 35.8700 119.3706 64° Northeast  Level Estimated
10:20PM 35.9144 119.4815 64° Northeast  Level Estimated
10:21PM 35.9587 119.5926 64° Northeast  Level Estimated
10:22PM 36.0028 119.7037 64° Northeast  Level Estimated
10:23PM 36.0469 119.8150 64° Northeast  Level Estimated
10:24PM 36.0909 119.9265 64° Northeast  Level Estimated
10:25PM 36.1347 120.0380 64° Northeast  Level Estimated
10:26PM 36.1785 120.1497 64° Northeast  Level Estimated
10:27PM 36.2221 120.2615 64° Northeast  Level Estimated
10:28PM 36.2657 120.3734 64° Northeast  Level Estimated
10:29PM 36.2661 120.3744 64° Northeast  Level Estimated
10:30PM 36.2661 120.3744 238° Southwest  Level Estimated
10:31PM 36.2661 120.3744 238° Southwest  Level Estimated
10:32PM 36.2661 120.3744 238° Southwest  Level Estimated
10:33PM 36.2661 120.3744 238° Southwest  Level Estimated
10:34PM 36.2661 120.3744 238° Southwest  Level Estimated
10:35PM 36.2661 120.3744 238° Southwest  Level Estimated
10:36PM 36.2661 120.3744 238° Southwest  Level Estimated
10:37PM 36.2661 120.3744 238° Southwest  Level Estimated
10:38PM 36.2661 120.3744 238° Southwest  Level Estimated
10:39PM 36.2661 120.3744 238° Southwest  Level Estimated
10:40PM 36.2661 120.3744 238° Southwest  Level Estimated
10:41PM 36.2661 120.3744 238° Southwest  Level Estimated
10:42PM 36.2661 120.3744 238° Southwest  Level Estimated
10:43PM 36.2661 120.3744 238° Southwest  Level Estimated
10:44PM 36.2661 120.3744 238° Southwest  Level Estimated